TimeCST,TemperatureF,Dew PointF,Humidity,Sea Level PressureIn,VisibilityMPH,Wind Direction,Wind SpeedMPH,Gust SpeedMPH,PrecipitationIn,Events,Conditions,WindDirDegrees,DateUTC
12:53 AM,14.0,3.9,64,30.41,10.0,Calm,Calm,-,N/A,,Partly Cloudy,0,2013-01-14 06:53:00
1:53 AM,14.0,3.9,64,30.45,10.0,WSW,4.6,-,N/A,,Clear,250,2013-01-14 07:53:00
2:53 AM,12.9,3.9,67,30.46,10.0,Calm,Calm,-,N/A,,Clear,0,2013-01-14 08:53:00
3:53 AM,12.2,3.2,67,30.42,10.0,SW,3.5,-,N/A,,Clear,220,2013-01-14 09:53:00
4:53 AM,14.0,5.0,67,30.45,10.0,WSW,4.6,-,N/A,,Clear,250,2013-01-14 10:53:00
5:53 AM,12.9,5.0,71,30.47,10.0,West,4.6,-,N/A,,Clear,280,2013-01-14 11:53:00
6:53 AM,12.0,5.0,73,30.47,10.0,NW,6.9,-,N/A,,Partly Cloudy,320,2013-01-14 12:53:00
7:53 AM,10.0,3.9,76,30.50,10.0,Calm,Calm,-,N/A,,Scattered Clouds,0,2013-01-14 13:53:00
8:53 AM,15.1,7.0,70,30.53,10.0,WNW,4.6,-,N/A,,Mostly Cloudy,290,2013-01-14 14:53:00
9:53 AM,17.1,9.0,71,30.55,10.0,WNW,3.5,-,N/A,,Mostly Cloudy,290,2013-01-14 15:53:00
10:53 AM,19.9,9.0,62,30.53,10.0,WNW,4.6,-,N/A,,Mostly Cloudy,300,2013-01-14 16:53:00
11:53 AM,24.1,9.0,53,30.48,10.0,North,6.9,-,N/A,,Mostly Cloudy,350,2013-01-14 17:53:00
12:53 PM,28.0,7.0,41,30.44,10.0,NNE,5.8,-,N/A,,Mostly Cloudy,20,2013-01-14 18:53:00
1:53 PM,30.0,7.0,38,30.43,10.0,NNE,6.9,-,N/A,,Partly Cloudy,30,2013-01-14 19:53:00
2:53 PM,30.0,7.0,38,30.43,10.0,Calm,Calm,-,N/A,,Partly Cloudy,0,2013-01-14 20:53:00
3:53 PM,30.2,6.8,37,30.39,10.0,ENE,5.8,-,N/A,,Partly Cloudy,70,2013-01-14 21:53:00
4:53 PM,28.0,7.0,41,30.42,10.0,East,6.9,-,N/A,,Clear,90,2013-01-14 22:53:00
5:53 PM,26.1,7.0,44,30.42,10.0,ESE,4.6,-,N/A,,Partly Cloudy,110,2013-01-14 23:53:00
6:53 PM,24.1,8.1,51,30.44,10.0,East,6.9,-,N/A,,Partly Cloudy,100,2013-01-15 00:53:00
7:53 PM,19.9,10.0,65,30.45,10.0,SE,6.9,-,N/A,,Partly Cloudy,130,2013-01-15 01:53:00
8:53 PM,19.9,10.0,65,30.44,10.0,SE,6.9,-,N/A,,Partly Cloudy,130,2013-01-15 02:53:00
9:53 PM,19.0,9.0,65,30.44,10.0,SSE,4.6,-,N/A,,Scattered Clouds,150,2013-01-15 03:53:00
10:53 PM,21.0,9.0,60,30.43,10.0,Calm,Calm,-,N/A,,Clear,0,2013-01-15 04:53:00
11:53 PM,19.9,8.1,60,30.43,10.0,South,3.5,-,N/A,,Scattered Clouds,170,2013-01-15 05:53:00